Nearby METAR Reports

 

KO22 - Columbia, California, USA
Distance from station: SSW 15mi, 25km
Updated: Sat, 17-Feb-2018 11:15am PST
Clear
Clear
 Wind from SW
Wind: SW 8 mph , 13 km/h
Temperature: 63°F , 17°C
Dew Point: 37°F , 3°C
Humidity: 39%
Barometer: 30.18 inHg , 1022 hPa
Clouds: Clear
Visibility: 10 miles , 16 km
2018/02/17 19:15 KO22 171915Z AUTO 22007KT 10SM CLR 17/03 A3018 RMK AO1
KPVF - Placerville, California, USA
Distance from station: NW 39mi, 63km
Updated: Sat, 17-Feb-2018 11:15am PST
Clear
Clear
 Wind from SSW
Wind: SSW 7 mph , 11 km/h
Temperature: 59°F , 15°C
Dew Point: 32°F , 0°C
Humidity: 36%
Barometer: 30.19 inHg , 1022.4 hPa
Clouds: Clear
Visibility: 10 miles , 16 km
2018/02/17 19:15 KPVF 171915Z AUTO 21006KT 10SM CLR 15/00 A3019 RMK AO1
 
KBAN - Bridgeport(Mcmwt, California, USA
Distance from station: E 45mi, 73km
Updated: Sat, 17-Feb-2018 10:52am PST
Clear
Clear
 Wind from SW
Wind: SW 13 mph , 20 km/h, Gust: 20 mph , 31 km/h
Temperature: 59°F , 15°C
Dew Point: 7°F , -14°C
Humidity: 12%
Barometer: 30.15 inHg , 1021 hPa
Clouds: Clear
Visibility: 10 miles , 16 km
2018/02/17 18:52 KBAN 171852Z AUTO 22011G17KT 10SM CLR 15/M14 A3015 RMK AO2 SLP186 T01501144 $
KTVL - South Lake Tahoe, California, USA
Distance from station: NNE 49mi, 78km
Updated: Sat, 17-Feb-2018 10:53am PST
Clear
Clear
 Wind from varies
Wind: varies 3 mph , 6 km/h
Temperature: 50°F , 10°C
Dew Point: 28°F , -2°C
Humidity: 43%
Barometer: 30.18 inHg , 1022 hPa
Clouds: Clear
Visibility: 10 miles , 16 km
2018/02/17 18:53 KTVL 171853Z AUTO VRB03KT 10SM CLR 10/M02 A3018 RMK AO2 SLP207 T01001022
 
KSCK - Stockton, California, USA
Distance from station: WSW 54mi, 87km
Updated: Sat, 17-Feb-2018 10:55am PST
Clear
Clear
 Wind from varies
Wind: varies 3 mph , 6 km/h
Temperature: 63°F , 17°C
Dew Point: 37°F , 3°C
Humidity: 39%
Barometer: 30.17 inHg , 1021.7 hPa
Clouds: Clear
Visibility: 10 miles , 16 km
2018/02/17 18:55 KSCK 171855Z VRB03KT 10SM CLR 17/03 A3017 RMK AO2 SLP216 T01720028
KMHR - Mather Field, California, USA
Distance from station: WNW 54mi, 88km
Updated: Sat, 17-Feb-2018 10:45am PST
Clear
Clear
 Wind from calm
Wind: Calm
Temperature: 57°F , 14°C
Dew Point: 39°F , 4°C
Humidity: 51%
Barometer: 30.17 inHg , 1021.7 hPa
Clouds: Clear
Visibility: 10 miles , 16 km
2018/02/17 18:45 KMHR 171845Z 00000KT 10SM SKC 14/04 A3017
 
KMOD - Modesto, California, USA
Distance from station: SW 55mi, 88km
Updated: Sat, 17-Feb-2018 10:53am PST
Clear
Clear
 Wind from SW
Wind: SW 3 mph , 6 km/h
Temperature: 61°F , 16°C
Dew Point: 32°F , 0°C
Humidity: 34%
Barometer: 30.17 inHg , 1021.7 hPa
Clouds: Clear
Visibility: 10 miles , 16 km
2018/02/17 18:53 KMOD 171853Z 23003KT 10SM CLR 16/00 A3017 RMK AO2 SLP216 T01560000
KMER - Merced/Castle Af, California, USA
Distance from station: S 61mi, 98km
Updated: Sat, 17-Feb-2018 10:50am PST
Clear
Clear
 Wind from calm
Wind: Calm
Temperature: 63°F , 17°C
Dew Point: 36°F , 2°C
Humidity: 37%
Barometer: 30.17 inHg , 1021.7 hPa
Clouds: Clear
Visibility: 10 miles , 16 km
2018/02/17 18:50 KMER 171850Z 00000KT 10SM SKC 17/02 A3017
 
KAUN - Auburn Muni, California, USA
Distance from station: NW 63mi, 101km
Updated: Sat, 17-Feb-2018 11:35am PST
Clear
Clear
 Wind from SSW
Wind: SSW 5 mph , 7 km/h
Temperature: 63°F , 17°C
Dew Point: 36°F , 2°C
Humidity: 37%
Barometer: 30.17 inHg , 1021.7 hPa
Clouds: Clear
Visibility: 10 miles , 16 km
2018/02/17 19:35 KAUN 171935Z AUTO 20004KT 10SM CLR 17/02 A3017 RMK AO1
KMCC - Mcclellan Afb, California, USA
Distance from station: WNW 64mi, 103km
Updated: Sat, 17-Feb-2018 11:35am PST
Clear
Clear
 Wind from ESE
Wind: ESE 5 mph , 7 km/h
Temperature: 61°F , 16°C
Dew Point: 37°F , 3°C
Humidity: 42%
Barometer: 30.18 inHg , 1022 hPa
Clouds: Clear
Visibility: 10 miles , 16 km
2018/02/17 19:35 KMCC 171935Z AUTO 12004KT 10SM CLR 16/03 A3018 RMK AO2
 
KSAC - Sacramento, California, USA
Distance from station: WNW 65mi, 104km
Updated: Sat, 17-Feb-2018 10:53am PST
Clear
Clear
 Wind from SSE
Wind: SSE 3 mph , 6 km/h
Temperature: 57°F , 14°C
Dew Point: 39°F , 4°C
Humidity: 51%
Barometer: 30.18 inHg , 1022 hPa
Clouds: Clear
Visibility: 10 miles , 16 km
2018/02/17 18:53 KSAC 171853Z 16003KT 10SM CLR 14/04 A3018 RMK AO2 SLP219 T01440044
KMCE - Merced, California, USA
Distance from station: S 67mi, 108km
Updated: Sat, 17-Feb-2018 10:53am PST
Clear
Clear
 Wind from calm
Wind: Calm
Temperature: 61°F , 16°C
Dew Point: 36°F , 2°C
Humidity: 39%
Barometer: 30.17 inHg , 1021.7 hPa
Clouds: Clear
Visibility: 10 miles , 16 km
2018/02/17 18:53 KMCE 171853Z AUTO 00000KT 10SM CLR 16/02 A3017 RMK AO2 SLP216 T01560022
 
KLHM - Lincoln, California, USA
Distance from station: NW 71mi, 115km
Updated: Sat, 17-Feb-2018 11:35am PST
Clear
Clear
 Wind from calm
Wind: Calm
Temperature: 61°F , 16°C
Dew Point: 39°F , 4°C
Humidity: 45%
Barometer: 30.16 inHg , 1021.3 hPa
Clouds: Clear
Visibility: 10 miles , 16 km
2018/02/17 19:35 KLHM 171935Z AUTO 00000KT 10SM CLR 16/04 A3016 RMK AO1
KCXP - Carson City, Nevada, USA
Distance from station: NNE 72mi, 117km
Updated: Sat, 17-Feb-2018 11:35am PST
Few Clouds
Few Clouds
 Wind from calm
Wind: Calm
Temperature: 52°F , 11°C
Dew Point: 18°F , -8°C
Humidity: 26%
Barometer: 30.14 inHg , 1020.7 hPa
Clouds: Few Clouds
Visibility: 10 miles , 16 km
Cloud details: Few Clouds 1000 ft
2018/02/17 19:35 KCXP 171935Z AUTO 00000KT 10SM FEW010 11/M08 A3014 RMK AO2
 
KBLU - Emigrant Gap, California, USA
Distance from station: NNW 74mi, 119km
Updated: Sat, 17-Feb-2018 10:52am PST
Clear
Clear
 Wind from S
Wind: S 9 mph , 15 km/h
Temperature: 50°F , 10°C
Wind Chill: 46°F , 8°C
Dew Point: 27°F , -3°C
Humidity: 40%
Barometer: 30.21 inHg , 1023 hPa
Clouds: Clear
Visibility: 10 miles , 16 km
2018/02/17 18:52 KBLU 171852Z AUTO 18008KT 10SM CLR 10/M03 A3021 RMK AO2 SLP196 T01001028
KSMF - Sacramento/Metro, California, USA
Distance from station: WNW 75mi, 120km
Updated: Sat, 17-Feb-2018 10:53am PST
Clear
Clear
 Wind from calm
Wind: Calm
Temperature: 57°F , 14°C
Dew Point: 41°F , 5°C
Humidity: 55%
Barometer: 30.18 inHg , 1022 hPa
Clouds: Clear
Visibility: 10 miles , 16 km
2018/02/17 18:53 KSMF 171853Z 00000KT 10SM CLR 14/05 A3018 RMK AO2 SLP217 T01390050
 
KTRK - Truckee Tahoe, California, USA
Distance from station: N 75mi, 120km
Updated: Sat, 17-Feb-2018 8:50am PST
NOT Current
Clear
Clear
 Wind from calm
Wind: Calm
Temperature: 28°F , -2°C
Dew Point: 23°F , -5°C
Humidity: 80%
Barometer: 30.22 inHg , 1023.4 hPa
Clouds: Clear
Visibility: 10 miles , 16 km
2018/02/17 16:50 KTRK 171650Z 00000KT 10SM SKC M02/M05 A3022
KGOO - Grass Valley, California, USA
Distance from station: NNW 76mi, 122km
Updated: Sat, 17-Feb-2018 11:40am PST
Clear
Clear
 Wind from S
Wind: S 3 mph , 6 km/h
Temperature: 57°F , 14°C
Dew Point: 32°F , 0°C
Humidity: 39%
Barometer: 30.17 inHg , 1021.7 hPa
Clouds: Clear
Visibility: 10 miles , 16 km
2018/02/17 19:40 KGOO 171940Z AUTO 17003KT 10SM CLR 14/00 A3017 RMK AO1

spacer wunderground wow PWS SWWN Image Map